createdAt,value
2022-09-12T00:00:29.417Z,99.40
2022-09-12T00:02:56.257Z,99.40
2022-09-12T00:05:23.063Z,99.30
2022-09-12T00:07:50.605Z,99.40
2022-09-12T00:10:18.020Z,99.40
2022-09-12T00:12:44.759Z,99.30
2022-09-12T00:15:13.615Z,99.20
2022-09-12T00:17:43.388Z,99.30
2022-09-12T00:20:11.330Z,99.30
2022-09-12T00:22:45.162Z,99.30
2022-09-12T00:25:12.181Z,99.00
2022-09-12T00:27:38.837Z,99.40
2022-09-12T00:30:06.249Z,99.40
2022-09-12T00:32:34.232Z,99.40
2022-09-12T00:35:02.811Z,99.40
2022-09-12T00:37:29.477Z,99.30
2022-09-12T00:39:56.477Z,99.40
2022-09-12T00:42:24.204Z,99.40
2022-09-12T00:44:52.356Z,99.50
2022-09-12T00:47:31.189Z,99.40
2022-09-12T00:50:13.871Z,99.40
2022-09-12T00:52:46.773Z,99.40
2022-09-12T00:55:21.786Z,99.40
2022-09-12T00:57:57.592Z,99.50
2022-09-12T01:00:26.378Z,99.40
2022-09-12T01:02:56.698Z,99.50
2022-09-12T01:05:23.761Z,99.50
2022-09-12T01:07:52.327Z,99.40
2022-09-12T01:10:19.952Z,99.60
2022-09-12T01:12:47.911Z,99.50
2022-09-12T01:15:14.654Z,99.50
2022-09-12T01:18:10.052Z,99.60
2022-09-12T01:21:11.521Z,99.70
2022-09-12T01:24:02.377Z,99.60
2022-09-12T01:27:06.604Z,99.70
2022-09-12T01:30:11.059Z,99.70
2022-09-12T01:32:54.912Z,99.50
2022-09-12T01:36:03.733Z,99.70
2022-09-12T01:38:39.662Z,99.70
2022-09-12T01:41:15.425Z,99.70
2022-09-12T01:43:51.930Z,99.40
2022-09-12T01:46:32.017Z,99.40
2022-09-12T01:49:12.338Z,99.60
2022-09-12T01:51:41.401Z,99.60
2022-09-12T01:54:34.001Z,99.50
2022-09-12T01:57:08.607Z,99.70
2022-09-12T01:59:43.491Z,99.60
2022-09-12T02:02:40.884Z,99.80
2022-09-12T02:05:25.252Z,99.50
2022-09-12T02:07:57.321Z,99.60
2022-09-12T02:10:32.478Z,99.40
2022-09-12T02:13:16.908Z,99.30
2022-09-12T02:15:49.430Z,99.30
2022-09-12T02:18:18.663Z,99.20
2022-09-12T02:20:49.190Z,99.30
2022-09-12T02:23:25.050Z,99.30
2022-09-12T02:25:58.889Z,99.30
2022-09-12T02:28:30.947Z,99.30
2022-09-12T02:31:06.637Z,99.50
2022-09-12T02:33:51.921Z,99.60
2022-09-12T02:36:27.613Z,99.40
2022-09-12T02:38:56.161Z,99.50
2022-09-12T02:41:23.487Z,99.50
2022-09-12T02:43:51.481Z,99.50
2022-09-12T02:46:26.554Z,99.40
2022-09-12T02:48:54.064Z,99.40
2022-09-12T02:51:23.782Z,99.60
2022-09-12T02:53:51.279Z,99.60
2022-09-12T02:56:25.686Z,99.40
2022-09-12T02:58:56.469Z,99.60
2022-09-12T03:01:40.964Z,99.50
2022-09-12T03:04:27.215Z,99.60
2022-09-12T03:07:16.871Z,99.80
2022-09-12T03:09:44.111Z,99.70
2022-09-12T03:12:13.672Z,99.50
2022-09-12T03:15:01.762Z,99.50
2022-09-12T03:17:56.861Z,99.70
2022-09-12T03:20:54.452Z,99.80
2022-09-12T03:23:59.032Z,99.80
2022-09-12T03:26:32.748Z,99.90
2022-09-12T03:29:01.185Z,99.80
2022-09-12T03:31:28.002Z,99.90
2022-09-12T03:33:54.718Z,99.90
2022-09-12T03:36:24.524Z,99.90
2022-09-12T03:38:52.275Z,99.90
2022-09-12T03:41:19.394Z,99.90
2022-09-12T03:43:46.431Z,99.90
2022-09-12T03:46:13.672Z,99.90
2022-09-12T03:48:41.271Z,99.90
2022-09-12T03:51:10.021Z,99.90
2022-09-12T03:53:37.020Z,99.90
2022-09-12T03:56:09.822Z,99.90
2022-09-12T03:58:37.486Z,99.90
2022-09-12T04:01:12.906Z,99.90
2022-09-12T04:03:44.575Z,99.90
2022-09-12T04:06:13.868Z,99.90
2022-09-12T04:08:42.422Z,99.90
2022-09-12T04:11:12.964Z,99.80
2022-09-12T04:13:41.097Z,99.90
2022-09-12T04:16:08.610Z,99.90
2022-09-12T04:18:35.634Z,99.90
2022-09-12T04:21:07.387Z,99.90
2022-09-12T04:23:34.511Z,99.90
2022-09-12T04:26:02.969Z,99.90
2022-09-12T04:28:30.481Z,99.90
2022-09-12T04:31:07.551Z,99.90
2022-09-12T04:33:35.254Z,99.90
2022-09-12T04:36:11.299Z,99.90
2022-09-12T04:38:39.019Z,99.90
2022-09-12T04:41:22.252Z,99.90
2022-09-12T04:43:53.128Z,99.90
2022-09-12T04:46:20.519Z,99.90
2022-09-12T04:48:48.396Z,99.90
2022-09-12T04:51:17.819Z,99.90
2022-09-12T04:53:49.721Z,99.90
2022-09-12T04:56:16.870Z,99.90
2022-09-12T04:58:43.689Z,99.90
2022-09-12T05:01:12.884Z,99.90
2022-09-12T05:03:40.867Z,99.90
2022-09-12T05:06:10.060Z,99.90
2022-09-12T05:08:37.275Z,99.90
2022-09-12T05:11:10.230Z,99.90
2022-09-12T05:13:36.959Z,99.90
2022-09-12T05:16:05.418Z,99.90
2022-09-12T05:18:34.032Z,99.90
2022-09-12T05:21:02.488Z,99.90
2022-09-12T05:23:29.936Z,99.90
2022-09-12T05:25:58.368Z,99.90
2022-09-12T05:28:29.951Z,99.90
2022-09-12T05:31:05.403Z,99.90
2022-09-12T05:33:33.435Z,99.90
2022-09-12T05:36:00.228Z,99.90
2022-09-12T05:38:28.416Z,99.90
2022-09-12T05:41:04.108Z,99.90
2022-09-12T05:43:30.746Z,99.70
2022-09-12T05:46:08.893Z,99.70
2022-09-12T05:48:37.108Z,99.40
2022-09-12T05:51:08.821Z,99.10
2022-09-12T05:53:37.471Z,98.70
2022-09-12T05:56:11.088Z,98.60
2022-09-12T05:58:40.801Z,98.70
2022-09-12T06:01:12.950Z,98.80
2022-09-12T06:03:48.423Z,98.80
2022-09-12T06:06:16.786Z,98.60
2022-09-12T06:08:46.713Z,98.70
2022-09-12T06:11:15.842Z,98.30
2022-09-12T06:13:43.363Z,98.50
2022-09-12T06:16:15.813Z,98.80
2022-09-12T06:18:47.232Z,98.40
2022-09-12T06:21:14.584Z,98.30
2022-09-12T06:23:41.676Z,98.20
2022-09-12T06:26:10.728Z,98.50
2022-09-12T06:28:39.685Z,98.40
2022-09-12T06:31:09.691Z,98.40
2022-09-12T06:33:39.019Z,98.20
2022-09-12T06:36:12.057Z,99.90
2022-09-12T06:38:40.875Z,99.90
2022-09-12T06:41:10.637Z,99.90
2022-09-12T06:43:37.370Z,99.90
2022-09-12T06:46:04.269Z,99.90
2022-09-12T06:48:32.178Z,99.90
2022-09-12T06:51:01.205Z,99.90
2022-09-12T06:53:29.159Z,99.90
2022-09-12T06:56:04.972Z,99.90
2022-09-12T06:58:31.843Z,99.90
2022-09-12T07:01:10.162Z,99.90
2022-09-12T07:03:38.051Z,99.90
2022-09-12T07:06:07.338Z,99.90
2022-09-12T07:08:34.630Z,99.90
2022-09-12T07:11:28.122Z,99.90
2022-09-12T07:13:56.564Z,99.90
2022-09-12T07:16:24.078Z,99.90
2022-09-12T07:18:56.123Z,99.50
2022-09-12T07:21:22.978Z,99.90
2022-09-12T07:23:51.839Z,99.90
2022-09-12T07:26:19.023Z,98.90
2022-09-12T07:28:45.716Z,99.00
2022-09-12T07:31:16.623Z,98.70
2022-09-12T07:33:43.747Z,97.50
2022-09-12T07:36:16.199Z,96.80
2022-09-12T07:38:44.077Z,96.90
2022-09-12T07:41:11.929Z,96.70
2022-09-12T07:43:38.744Z,97.10
2022-09-12T07:46:05.927Z,96.50
2022-09-12T07:48:32.658Z,96.40
2022-09-12T07:51:03.431Z,96.60
2022-09-12T07:53:35.992Z,96.60
2022-09-12T07:56:05.486Z,96.20
2022-09-12T07:58:33.776Z,96.70
2022-09-12T08:01:08.953Z,96.10
2022-09-12T08:03:42.622Z,96.20
2022-09-12T08:06:11.899Z,96.10
2022-09-12T08:08:40.440Z,96.60
2022-09-12T08:11:10.224Z,96.00
2022-09-12T08:13:39.393Z,96.20
2022-09-12T08:16:08.560Z,96.00
2022-09-12T08:18:36.418Z,95.20
2022-09-12T08:21:24.971Z,95.80
2022-09-12T08:23:54.122Z,96.10
2022-09-12T08:26:21.188Z,95.70
2022-09-12T08:28:48.458Z,95.80
2022-09-12T08:31:18.301Z,95.60
2022-09-12T08:33:45.300Z,95.50
2022-09-12T08:36:21.315Z,95.60
2022-09-12T08:38:50.034Z,96.00
2022-09-12T08:41:30.508Z,95.80
2022-09-12T08:44:34.962Z,95.60
2022-09-12T08:47:10.525Z,95.80
2022-09-12T08:50:10.383Z,95.90
2022-09-12T08:52:52.042Z,96.50
2022-09-12T08:55:33.397Z,96.00
2022-09-12T08:58:17.063Z,95.50
2022-09-12T09:01:12.734Z,95.80
2022-09-12T09:04:17.514Z,96.30
2022-09-12T09:07:02.397Z,96.50
2022-09-12T09:09:39.964Z,95.80
2022-09-12T09:12:24.649Z,96.20
2022-09-12T09:15:05.127Z,95.70
2022-09-12T09:17:37.936Z,95.70
2022-09-12T09:20:30.806Z,95.70
2022-09-12T09:23:16.115Z,95.40
2022-09-12T09:25:59.224Z,95.50
2022-09-12T09:28:42.364Z,95.80
2022-09-12T09:31:23.898Z,96.30
2022-09-12T09:33:54.217Z,95.60
2022-09-12T09:36:22.475Z,95.40
2022-09-12T09:39:06.088Z,95.90
2022-09-12T09:41:44.628Z,96.40
2022-09-12T09:44:11.708Z,96.10
2022-09-12T09:46:38.741Z,95.30
2022-09-12T09:49:07.186Z,95.50
2022-09-12T09:51:39.742Z,95.70
2022-09-12T09:54:25.532Z,95.60
2022-09-12T09:56:52.389Z,95.50
2022-09-12T09:59:32.513Z,95.80
2022-09-12T10:02:24.257Z,95.60
2022-09-12T10:04:57.613Z,95.30
2022-09-12T10:07:25.925Z,95.70
2022-09-12T10:10:17.225Z,96.00
2022-09-12T10:12:46.178Z,95.90
2022-09-12T10:15:27.626Z,95.70
2022-09-12T10:18:10.553Z,96.10
2022-09-12T10:20:45.297Z,97.30
2022-09-12T10:23:35.422Z,95.50
2022-09-12T10:26:05.193Z,96.80
2022-09-12T10:28:51.348Z,95.90
2022-09-12T10:31:30.000Z,95.20
2022-09-12T10:34:00.090Z,95.50
2022-09-12T10:36:39.552Z,95.50
2022-09-12T10:39:07.204Z,96.00
2022-09-12T10:41:40.484Z,95.40
2022-09-12T10:44:31.095Z,96.40
2022-09-12T10:47:00.627Z,95.80
2022-09-12T10:49:31.818Z,95.10
2022-09-12T10:52:23.372Z,95.50
2022-09-12T10:54:53.588Z,94.70
2022-09-12T10:57:35.460Z,95.40
2022-09-12T11:00:16.975Z,95.30
2022-09-12T11:03:15.451Z,95.20
2022-09-12T11:06:01.706Z,94.70
2022-09-12T11:08:52.078Z,93.60
2022-09-12T11:11:22.514Z,94.40
2022-09-12T11:13:58.471Z,94.60
2022-09-12T11:16:50.551Z,94.90
2022-09-12T11:19:50.979Z,94.50
2022-09-12T11:22:32.063Z,93.20
2022-09-12T11:25:12.940Z,94.80
2022-09-12T11:28:00.387Z,94.10
2022-09-12T11:30:32.140Z,93.30
2022-09-12T11:33:42.697Z,94.20
2022-09-12T11:36:39.307Z,93.70
2022-09-12T11:39:16.168Z,93.10
2022-09-12T11:41:51.145Z,94.00
2022-09-12T11:44:24.396Z,94.50
2022-09-12T11:46:52.101Z,94.00
2022-09-12T11:49:24.980Z,93.10
2022-09-12T11:52:02.336Z,92.40
2022-09-12T11:54:57.786Z,93.50
2022-09-12T11:57:28.416Z,93.80
2022-09-12T12:00:02.132Z,93.60
2022-09-12T12:02:43.852Z,93.50
2022-09-12T12:05:20.353Z,93.60
2022-09-12T12:07:56.146Z,92.80
2022-09-12T12:10:27.378Z,93.00
2022-09-12T12:12:56.582Z,93.70
2022-09-12T12:15:25.506Z,93.00
2022-09-12T12:18:18.988Z,92.50
2022-09-12T12:20:46.236Z,93.20
2022-09-12T12:23:29.244Z,93.40
2022-09-12T12:25:57.774Z,93.50
2022-09-12T12:28:42.766Z,93.10
2022-09-12T12:31:11.366Z,92.50
2022-09-12T12:33:38.006Z,91.80
2022-09-12T12:36:11.341Z,92.60
2022-09-12T12:38:39.846Z,93.40
2022-09-12T12:41:18.656Z,93.60
2022-09-12T12:43:47.938Z,93.70
2022-09-12T12:46:17.388Z,93.10
2022-09-12T12:48:52.013Z,92.40
2022-09-12T12:51:43.476Z,93.20
2022-09-12T12:54:30.250Z,92.70
2022-09-12T12:57:15.273Z,92.30
2022-09-12T12:59:54.517Z,91.50
2022-09-12T13:02:37.370Z,91.50
2022-09-12T13:05:18.664Z,91.50
2022-09-12T13:07:45.907Z,92.30
2022-09-12T13:10:23.996Z,92.30
2022-09-12T13:12:51.963Z,92.20
2022-09-12T13:15:40.305Z,92.50
2022-09-12T13:18:24.381Z,92.30
2022-09-12T13:21:17.455Z,91.70
2022-09-12T13:23:46.316Z,92.20
2022-09-12T13:26:21.861Z,91.80
2022-09-12T13:29:14.304Z,92.30
2022-09-12T13:31:46.639Z,90.90
2022-09-12T13:34:20.951Z,92.40
2022-09-12T13:37:12.560Z,92.40
2022-09-12T13:39:49.752Z,92.00
2022-09-12T13:42:38.246Z,91.20
2022-09-12T13:45:27.011Z,92.20
2022-09-12T13:47:58.853Z,92.30
2022-09-12T13:50:39.470Z,92.00
2022-09-12T13:53:12.584Z,91.90
2022-09-12T13:55:47.345Z,92.20
2022-09-12T13:58:33.941Z,92.10
2022-09-12T14:01:21.242Z,92.20
2022-09-12T14:04:16.456Z,91.40
2022-09-12T14:06:51.884Z,91.40
2022-09-12T14:09:38.569Z,89.70
2022-09-12T14:12:18.235Z,90.90
2022-09-12T14:14:49.925Z,90.80
2022-09-12T14:17:31.491Z,91.30
2022-09-12T14:20:03.802Z,91.80
2022-09-12T14:22:31.184Z,91.20
2022-09-12T14:24:59.605Z,91.30
2022-09-12T14:27:37.299Z,91.20
2022-09-12T14:30:21.682Z,92.00
2022-09-12T14:33:10.242Z,90.20
2022-09-12T14:35:42.642Z,91.90
2022-09-12T14:38:15.861Z,90.80
2022-09-12T14:40:59.833Z,92.10
2022-09-12T14:43:31.608Z,92.70
2022-09-12T14:46:02.243Z,91.20
2022-09-12T14:48:32.993Z,90.60
2022-09-12T14:51:01.318Z,91.00
2022-09-12T14:53:36.735Z,91.90
2022-09-12T14:56:11.923Z,90.60
2022-09-12T14:58:42.659Z,91.40
2022-09-12T15:01:09.354Z,90.90
2022-09-12T15:03:51.851Z,92.00
2022-09-12T15:06:31.121Z,91.50
2022-09-12T15:09:02.189Z,91.30
2022-09-12T15:11:29.232Z,92.50
2022-09-12T15:13:56.058Z,91.70
2022-09-12T15:16:22.870Z,92.40
2022-09-12T15:18:49.894Z,91.70
2022-09-12T15:21:20.890Z,92.40
2022-09-12T15:23:50.855Z,91.20
2022-09-12T15:26:20.700Z,91.50
2022-09-12T15:28:47.379Z,91.70
2022-09-12T15:31:37.074Z,92.40
2022-09-12T15:34:05.413Z,92.30
2022-09-12T15:36:33.199Z,90.70
2022-09-12T15:38:59.860Z,91.30
2022-09-12T15:41:37.387Z,92.00
2022-09-12T15:44:05.299Z,92.10
2022-09-12T15:46:32.180Z,91.00
2022-09-12T15:48:58.930Z,92.20
2022-09-12T15:51:25.774Z,91.70
2022-09-12T15:53:52.758Z,91.80
2022-09-12T15:56:22.266Z,89.80
2022-09-12T15:58:58.670Z,91.70
2022-09-12T16:01:27.910Z,90.50
2022-09-12T16:03:54.673Z,91.00
2022-09-12T16:06:22.224Z,90.40
2022-09-12T16:08:50.054Z,91.80
2022-09-12T16:11:25.915Z,91.90
2022-09-12T16:13:55.391Z,91.40
2022-09-12T16:16:22.204Z,90.70
2022-09-12T16:18:49.231Z,91.90
2022-09-12T16:21:16.216Z,92.00
2022-09-12T16:23:44.125Z,92.40
2022-09-12T16:26:11.075Z,90.90
2022-09-12T16:28:37.915Z,90.80
2022-09-12T16:31:06.465Z,91.40
2022-09-12T16:33:45.096Z,91.20
2022-09-12T16:36:15.158Z,90.30
2022-09-12T16:38:46.633Z,90.40
2022-09-12T16:41:14.786Z,91.40
2022-09-12T16:43:42.808Z,92.00
2022-09-12T16:46:19.025Z,90.30
2022-09-12T16:48:52.370Z,90.10
2022-09-12T16:51:25.095Z,90.50
2022-09-12T16:53:52.136Z,90.50
2022-09-12T16:56:19.381Z,90.20
2022-09-12T16:58:47.640Z,90.30
2022-09-12T17:01:26.372Z,90.30
2022-09-12T17:03:58.168Z,90.10
2022-09-12T17:06:25.841Z,92.00
2022-09-12T17:08:53.883Z,90.10
2022-09-12T17:11:26.918Z,90.10
2022-09-12T17:14:11.748Z,90.00
2022-09-12T17:16:41.797Z,91.60
2022-09-12T17:19:12.179Z,92.00
2022-09-12T17:21:38.829Z,91.20
2022-09-12T17:24:05.809Z,92.10
2022-09-12T17:26:32.612Z,90.90
2022-09-12T17:28:59.280Z,92.20
2022-09-12T17:31:26.650Z,92.40
2022-09-12T17:34:01.005Z,91.90
2022-09-12T17:36:29.203Z,91.60
2022-09-12T17:38:56.160Z,91.50
2022-09-12T17:41:25.908Z,91.50
2022-09-12T17:43:56.521Z,91.60
2022-09-12T17:46:25.689Z,91.90
2022-09-12T17:48:57.037Z,92.30
2022-09-12T17:51:25.882Z,92.50
2022-09-12T17:54:01.146Z,92.00
2022-09-12T17:56:30.791Z,92.20
2022-09-12T17:58:59.654Z,92.10
2022-09-12T18:01:46.196Z,92.40
2022-09-12T18:04:13.233Z,92.30
2022-09-12T18:06:40.906Z,92.60
2022-09-12T18:09:09.686Z,92.60
2022-09-12T18:11:36.857Z,92.70
2022-09-12T18:14:03.652Z,93.00
2022-09-12T18:16:31.531Z,92.90
2022-09-12T18:19:03.818Z,92.70
2022-09-12T18:21:31.749Z,92.80
2022-09-12T18:24:11.656Z,92.70
2022-09-12T18:26:38.836Z,92.90
2022-09-12T18:29:05.851Z,93.10
2022-09-12T18:31:32.682Z,93.10
2022-09-12T18:34:00.375Z,93.30
2022-09-12T18:36:28.014Z,93.40
2022-09-12T18:38:55.039Z,93.30
2022-09-12T18:41:23.809Z,93.30
2022-09-12T18:43:55.433Z,94.10
2022-09-12T18:46:22.535Z,93.90
2022-09-12T18:48:49.528Z,93.90
2022-09-12T18:51:25.796Z,94.00
2022-09-12T18:53:54.863Z,94.20
2022-09-12T18:56:26.460Z,94.20
2022-09-12T18:58:55.675Z,94.40
2022-09-12T19:01:34.625Z,94.50
2022-09-12T19:04:04.725Z,94.50
2022-09-12T19:06:34.981Z,94.50
2022-09-12T19:09:06.701Z,94.80
2022-09-12T19:11:34.752Z,94.70
2022-09-12T19:14:02.093Z,94.50
2022-09-12T19:16:29.242Z,94.70
2022-09-12T19:18:57.130Z,94.90
2022-09-12T19:21:27.049Z,94.90
2022-09-12T19:23:57.459Z,95.00
2022-09-12T19:26:24.834Z,95.00
2022-09-12T19:28:52.489Z,95.20
2022-09-12T19:31:20.234Z,95.00
2022-09-12T19:33:48.015Z,94.90
2022-09-12T19:36:43.326Z,95.20
2022-09-12T19:39:06.503Z,95.30
2022-09-12T19:41:33.823Z,95.50
2022-09-12T19:44:00.559Z,95.50
2022-09-12T19:46:27.831Z,95.30
2022-09-12T19:48:54.709Z,95.30
2022-09-12T19:51:22.484Z,95.10
2022-09-12T19:53:50.272Z,95.20
2022-09-12T19:56:18.339Z,95.60
2022-09-12T19:58:46.755Z,96.00
2022-09-12T20:01:18.112Z,95.90
2022-09-12T20:03:45.972Z,95.70
2022-09-12T20:06:15.908Z,95.50
2022-09-12T20:08:44.028Z,95.50
2022-09-12T20:11:13.308Z,95.50
2022-09-12T20:13:41.172Z,95.50
2022-09-12T20:16:22.174Z,95.40
2022-09-12T20:18:53.813Z,95.50
2022-09-12T20:21:25.262Z,95.50
2022-09-12T20:23:53.293Z,95.50
2022-09-12T20:26:20.488Z,95.50
2022-09-12T20:28:47.369Z,95.50
2022-09-12T20:31:16.748Z,95.60
2022-09-12T20:33:47.566Z,95.50
2022-09-12T20:36:18.933Z,95.50
2022-09-12T20:38:51.143Z,95.70
2022-09-12T20:41:18.891Z,95.70
2022-09-12T20:43:49.212Z,95.70
2022-09-12T20:46:20.969Z,95.70
2022-09-12T20:48:48.607Z,95.70
2022-09-12T20:51:15.339Z,95.70
2022-09-12T20:53:42.063Z,95.70
2022-09-12T20:56:08.727Z,95.80
2022-09-12T20:58:36.849Z,95.90
2022-09-12T21:01:10.879Z,95.90
2022-09-12T21:03:41.820Z,96.00
2022-09-12T21:06:09.825Z,95.90
2022-09-12T21:08:37.340Z,95.90
2022-09-12T21:11:05.022Z,96.00
2022-09-12T21:13:32.205Z,96.00
2022-09-12T21:16:00.643Z,96.10
2022-09-12T21:18:27.473Z,96.10
2022-09-12T21:20:55.550Z,96.10
2022-09-12T21:23:23.476Z,96.20
2022-09-12T21:25:52.597Z,96.20
2022-09-12T21:28:20.088Z,96.20
2022-09-12T21:30:50.857Z,96.30
2022-09-12T21:33:19.428Z,96.40
2022-09-12T21:35:47.327Z,96.20
2022-09-12T21:38:18.622Z,96.30
2022-09-12T21:40:46.135Z,96.40
2022-09-12T21:43:13.353Z,96.50
2022-09-12T21:45:40.540Z,96.40
2022-09-12T21:48:07.636Z,96.50
2022-09-12T21:50:34.543Z,96.50
2022-09-12T21:53:01.191Z,96.80
2022-09-12T21:55:28.002Z,96.60
2022-09-12T21:57:55.441Z,96.60
2022-09-12T22:00:22.707Z,96.60
2022-09-12T22:02:49.637Z,96.70
2022-09-12T22:05:17.175Z,96.70
2022-09-12T22:07:43.980Z,96.70
2022-09-12T22:10:10.712Z,96.70
2022-09-12T22:12:37.358Z,96.70
2022-09-12T22:15:22.847Z,96.90
2022-09-12T22:17:51.835Z,96.90
2022-09-12T22:20:18.560Z,96.90
2022-09-12T22:23:03.793Z,96.90
2022-09-12T22:25:30.669Z,96.80
2022-09-12T22:27:58.244Z,97.00
2022-09-12T22:30:27.229Z,97.00
2022-09-12T22:32:54.175Z,97.00
2022-09-12T22:35:21.102Z,97.20
2022-09-12T22:37:48.277Z,97.00
2022-09-12T22:40:15.865Z,97.10
2022-09-12T22:42:42.917Z,97.20
2022-09-12T22:45:10.008Z,97.10
2022-09-12T22:47:36.934Z,97.20
2022-09-12T22:50:04.253Z,97.20
2022-09-12T22:52:31.026Z,97.30
2022-09-12T22:54:58.112Z,97.50
2022-09-12T22:57:24.807Z,97.40
2022-09-12T22:59:52.011Z,97.30
2022-09-12T23:02:18.736Z,97.50
2022-09-12T23:04:46.731Z,97.50
2022-09-12T23:07:13.442Z,97.30
2022-09-12T23:09:40.211Z,97.30
2022-09-12T23:12:06.995Z,97.40
2022-09-12T23:14:33.663Z,97.60
2022-09-12T23:17:00.410Z,97.50
2022-09-12T23:19:27.067Z,97.40
2022-09-12T23:21:53.729Z,97.60
2022-09-12T23:24:20.508Z,97.40
2022-09-12T23:26:47.206Z,97.60
2022-09-12T23:29:13.836Z,97.60
2022-09-12T23:31:40.553Z,97.50
2022-09-12T23:34:07.359Z,97.60
2022-09-12T23:36:34.326Z,97.50
2022-09-12T23:39:01.115Z,97.60
2022-09-12T23:41:28.132Z,97.70
2022-09-12T23:43:54.866Z,97.80
2022-09-12T23:46:22.277Z,97.70
2022-09-12T23:48:49.355Z,98.10
2022-09-12T23:51:16.476Z,97.80
2022-09-12T23:53:43.181Z,97.90
2022-09-12T23:56:10.005Z,97.90
2022-09-12T23:58:36.936Z,97.80
